createdAt,value
2018-06-06T00:00:03.406Z,20.16
2018-06-06T00:00:07.292Z,20.19
2018-06-06T00:00:11.509Z,20.17
2018-06-06T00:00:15.824Z,20.19
2018-06-06T00:00:20.031Z,20.13
2018-06-06T00:00:24.351Z,20.3
2018-06-06T00:00:28.657Z,20.15
2018-06-06T00:00:32.862Z,20.23
2018-06-06T00:00:37.173Z,20.16
2018-06-06T00:00:41.399Z,20.13
2018-06-06T00:00:45.602Z,20.15
2018-06-06T00:00:49.817Z,20.16
2018-06-06T00:00:54.093Z,20.22
2018-06-06T00:00:58.189Z,20.17
2018-06-06T00:01:02.497Z,20.15
2018-06-06T00:01:06.712Z,20.15
2018-06-06T00:01:11.032Z,20.2
2018-06-06T00:01:15.345Z,20.17
2018-06-06T00:01:19.363Z,20.16
2018-06-06T00:01:23.679Z,20.19
2018-06-06T00:01:27.884Z,20.12
2018-06-06T00:01:32.086Z,20.15
2018-06-06T00:01:36.288Z,20.13
2018-06-06T00:01:40.607Z,20.17
2018-06-06T00:01:44.811Z,20.13
2018-06-06T00:01:49.133Z,20.17
2018-06-06T00:01:53.446Z,20.26
2018-06-06T00:01:57.679Z,20.2
2018-06-06T00:02:02.043Z,20.19
2018-06-06T00:02:06.089Z,20.13
2018-06-06T00:02:10.198Z,20.12
2018-06-06T00:02:14.403Z,20.22
2018-06-06T00:02:18.611Z,20.15
2018-06-06T00:02:22.812Z,20.17
2018-06-06T00:02:27.131Z,20.17
2018-06-06T00:02:31.236Z,20.17
2018-06-06T00:02:35.392Z,20.22
2018-06-06T00:02:39.484Z,20.19
2018-06-06T00:02:43.690Z,20.13
2018-06-06T00:02:47.900Z,20.13
2018-06-06T00:02:52.106Z,20.15
2018-06-06T00:02:56.422Z,20.12
2018-06-06T00:03:00.744Z,20.16
2018-06-06T00:03:04.740Z,20.13
2018-06-06T00:03:08.736Z,20.15
2018-06-06T00:03:13.046Z,20.17
2018-06-06T00:03:17.248Z,20.16
2018-06-06T00:03:21.554Z,20.1
2018-06-06T00:03:25.761Z,20.12
2018-06-06T00:03:30.077Z,20.19
2018-06-06T00:03:34.286Z,20.13
2018-06-06T00:03:38.593Z,20.16
2018-06-06T00:03:42.579Z,20.16
2018-06-06T00:03:46.676Z,20.16
2018-06-06T00:03:50.770Z,20.17
2018-06-06T00:03:54.975Z,20.19
2018-06-06T00:03:59.078Z,20.13
2018-06-06T00:04:03.286Z,20.12
2018-06-06T00:04:07.283Z,20.13
2018-06-06T00:04:11.494Z,20.19
2018-06-06T00:04:15.815Z,20.17
2018-06-06T00:04:20.150Z,20.19
2018-06-06T00:04:24.458Z,20.17
2018-06-06T00:04:28.561Z,20.2
2018-06-06T00:04:32.876Z,20.16
2018-06-06T00:04:37.078Z,20.16
2018-06-06T00:04:41.298Z,20.15
2018-06-06T00:04:45.618Z,20.16
2018-06-06T00:04:49.711Z,20.15
2018-06-06T00:04:53.702Z,20.2
2018-06-06T00:04:58.010Z,20.19
2018-06-06T00:05:01.999Z,20.17
2018-06-06T00:05:06.243Z,20.2
2018-06-06T00:05:10.553Z,20.15
2018-06-06T00:05:14.756Z,20.17
2018-06-06T00:05:18.850Z,20.15
2018-06-06T00:05:22.946Z,20.12
2018-06-06T00:05:27.161Z,20.17
2018-06-06T00:05:31.270Z,20.07
2018-06-06T00:05:35.474Z,20.16
2018-06-06T00:05:39.789Z,20.13
2018-06-06T00:05:44.101Z,20.16
2018-06-06T00:05:48.306Z,20.17
2018-06-06T00:05:52.408Z,20.17
2018-06-06T00:05:56.580Z,20.15
2018-06-06T00:06:00.900Z,20.16
2018-06-06T00:06:04.895Z,20.15
2018-06-06T00:06:08.992Z,20.16
2018-06-06T00:06:13.200Z,20.17
2018-06-06T00:06:17.298Z,20.13
2018-06-06T00:06:21.651Z,20.2
2018-06-06T00:06:25.855Z,20.15
2018-06-06T00:06:30.062Z,20.13
2018-06-06T00:06:34.268Z,20.15
2018-06-06T00:06:38.581Z,20.2
2018-06-06T00:06:42.890Z,20.16
2018-06-06T00:06:47.096Z,20.1
2018-06-06T00:06:51.242Z,20.2
2018-06-06T00:06:55.464Z,20.16
2018-06-06T00:06:59.681Z,20.22
2018-06-06T00:07:03.460Z,20.19
2018-06-06T00:07:07.562Z,20.15
2018-06-06T00:07:11.553Z,20.13
2018-06-06T00:07:15.701Z,20.13
2018-06-06T00:07:20.013Z,20.15
2018-06-06T00:07:24.325Z,20.17
2018-06-06T00:07:28.426Z,20.12
2018-06-06T00:07:32.739Z,20.15
2018-06-06T00:07:37.055Z,20.1
2018-06-06T00:07:41.368Z,20.17
2018-06-06T00:07:45.581Z,20.15
2018-06-06T00:07:49.786Z,20.16
2018-06-06T00:07:54.100Z,20.15
2018-06-06T00:07:58.207Z,20.13
2018-06-06T00:08:02.303Z,20.19
2018-06-06T00:08:06.305Z,20.16
2018-06-06T00:08:10.404Z,20.15
2018-06-06T00:08:14.501Z,20.15
2018-06-06T00:08:18.702Z,20.17
2018-06-06T00:08:22.806Z,20.08
2018-06-06T00:08:26.905Z,20.15
2018-06-06T00:08:31.213Z,20.13
2018-06-06T00:08:35.528Z,20.15
2018-06-06T00:08:39.736Z,20.16
2018-06-06T00:08:44.046Z,20.17
2018-06-06T00:08:48.354Z,20.16
2018-06-06T00:08:52.569Z,20.15
2018-06-06T00:08:56.881Z,20.15
2018-06-06T00:09:01.225Z,20.13
2018-06-06T00:09:05.217Z,20.15
2018-06-06T00:09:09.430Z,20.15
2018-06-06T00:09:13.744Z,20.19
2018-06-06T00:09:17.847Z,20.1
2018-06-06T00:09:22.060Z,20.17
2018-06-06T00:09:26.382Z,20.12
2018-06-06T00:09:30.601Z,20.1
2018-06-06T00:09:34.915Z,20.04
2018-06-06T00:09:39.167Z,20.16
2018-06-06T00:09:43.370Z,20.15
2018-06-06T00:09:47.573Z,20.12
2018-06-06T00:09:51.774Z,20.02
2018-06-06T00:09:55.979Z,20.15
2018-06-06T00:10:00.075Z,20.07
2018-06-06T00:10:04.250Z,20.04
2018-06-06T00:10:08.242Z,20.16
2018-06-06T00:10:12.345Z,20.13
2018-06-06T00:10:16.551Z,20.1
2018-06-06T00:10:20.759Z,20.05
2018-06-06T00:10:24.959Z,20.07
2018-06-06T00:10:29.158Z,20.1
2018-06-06T00:10:33.480Z,20.01
2018-06-06T00:10:37.688Z,20.12
2018-06-06T00:10:42.004Z,20.1
2018-06-06T00:10:46.319Z,20.04
2018-06-06T00:10:50.630Z,20.04
2018-06-06T00:10:54.835Z,20.04
2018-06-06T00:10:58.931Z,20.08
2018-06-06T00:11:03.138Z,19.98
2018-06-06T00:11:07.348Z,20.02
2018-06-06T00:11:11.549Z,20.02
2018-06-06T00:11:15.759Z,20
2018-06-06T00:11:19.860Z,20
2018-06-06T00:11:24.063Z,20
2018-06-06T00:11:28.270Z,20.05
2018-06-06T00:11:32.586Z,20.07
2018-06-06T00:11:36.908Z,19.98
2018-06-06T00:11:41.176Z,20.05
2018-06-06T00:11:45.485Z,20.01
2018-06-06T00:11:49.684Z,20.12
2018-06-06T00:11:53.784Z,20.02
2018-06-06T00:11:58.095Z,20.1
2018-06-06T00:12:02.300Z,20.08
2018-06-06T00:12:06.507Z,20.05
2018-06-06T00:12:10.601Z,20.05
2018-06-06T00:12:14.813Z,20.04
2018-06-06T00:12:19.017Z,20.08
2018-06-06T00:12:23.225Z,20.01
2018-06-06T00:12:27.534Z,20.05
2018-06-06T00:12:31.742Z,20.05
2018-06-06T00:12:35.957Z,20.05
2018-06-06T00:12:40.157Z,20.07
2018-06-06T00:12:44.412Z,20.01
2018-06-06T00:12:48.615Z,20.05
2018-06-06T00:12:52.717Z,20.02
2018-06-06T00:12:56.920Z,20.04
2018-06-06T00:13:01.018Z,19.97
2018-06-06T00:13:05.225Z,20.01
2018-06-06T00:13:09.352Z,20.01
2018-06-06T00:13:13.559Z,19.97
2018-06-06T00:13:17.866Z,19.98
2018-06-06T00:13:22.185Z,20.01
2018-06-06T00:13:26.387Z,20.01
2018-06-06T00:13:30.695Z,20.02
2018-06-06T00:13:34.946Z,19.98
2018-06-06T00:13:39.258Z,19.98
2018-06-06T00:13:43.356Z,19.98
2018-06-06T00:13:47.563Z,19.97
2018-06-06T00:13:51.797Z,20.04
2018-06-06T00:13:56.107Z,20
2018-06-06T00:14:00.303Z,19.98
2018-06-06T00:14:04.398Z,20
2018-06-06T00:14:08.283Z,20.01
2018-06-06T00:14:12.483Z,19.97
2018-06-06T00:14:16.802Z,20.01
2018-06-06T00:14:21.118Z,19.98
2018-06-06T00:14:25.456Z,19.98
2018-06-06T00:14:29.724Z,19.92
2018-06-06T00:14:34.034Z,20
2018-06-06T00:14:38.243Z,19.97
2018-06-06T00:14:42.342Z,20.04
2018-06-06T00:14:46.546Z,19.92
2018-06-06T00:14:50.858Z,20.01
2018-06-06T00:14:55.059Z,19.94
2018-06-06T00:14:59.265Z,19.92
2018-06-06T00:15:03.372Z,19.95
2018-06-06T00:15:07.576Z,20
2018-06-06T00:15:11.891Z,19.98
2018-06-06T00:15:16.100Z,19.98
2018-06-06T00:15:20.193Z,19.9
2018-06-06T00:15:24.297Z,19.95
2018-06-06T00:15:28.613Z,20
2018-06-06T00:15:32.819Z,20
2018-06-06T00:15:37.028Z,19.92
2018-06-06T00:15:41.122Z,19.97
2018-06-06T00:15:45.220Z,19.89
2018-06-06T00:15:49.537Z,20
2018-06-06T00:15:53.738Z,19.98
2018-06-06T00:15:58.065Z,19.94
2018-06-06T00:16:02.116Z,19.94
2018-06-06T00:16:06.329Z,19.92
2018-06-06T00:16:10.324Z,19.98
2018-06-06T00:16:14.635Z,19.95
2018-06-06T00:16:18.733Z,19.98
2018-06-06T00:16:23.042Z,19.92
2018-06-06T00:16:27.348Z,19.98
2018-06-06T00:16:31.343Z,19.95
2018-06-06T00:16:35.545Z,19.94
2018-06-06T00:16:39.852Z,19.95
2018-06-06T00:16:44.172Z,19.94
2018-06-06T00:16:48.383Z,19.92
2018-06-06T00:16:52.591Z,19.94
2018-06-06T00:16:56.795Z,19.92
2018-06-06T00:17:01.001Z,19.92
2018-06-06T00:17:05.002Z,19.94
2018-06-06T00:17:09.314Z,19.9
2018-06-06T00:17:13.519Z,19.92
2018-06-06T00:17:17.835Z,19.94
2018-06-06T00:17:22.085Z,19.95
2018-06-06T00:17:26.185Z,19.94
2018-06-06T00:17:30.390Z,19.9
2018-06-06T00:17:34.713Z,19.94
2018-06-06T00:17:38.918Z,19.89
2018-06-06T00:17:43.019Z,19.97
2018-06-06T00:17:47.332Z,19.98
2018-06-06T00:17:51.545Z,19.97
2018-06-06T00:17:55.748Z,19.95
2018-06-06T00:17:59.740Z,19.97
2018-06-06T00:18:03.930Z,19.94
2018-06-06T00:18:08.249Z,19.94
2018-06-06T00:18:12.592Z,19.89
2018-06-06T00:18:16.693Z,19.89
2018-06-06T00:18:20.898Z,19.97
2018-06-06T00:18:25.154Z,19.92
2018-06-06T00:18:29.378Z,19.92
2018-06-06T00:18:33.480Z,19.92
2018-06-06T00:18:37.693Z,20.01
2018-06-06T00:18:41.997Z,20.04
2018-06-06T00:18:46.195Z,19.97
2018-06-06T00:18:50.403Z,20
2018-06-06T00:18:54.709Z,19.95
2018-06-06T00:18:58.905Z,19.94
2018-06-06T00:19:02.904Z,19.87
2018-06-06T00:19:07.215Z,19.97
2018-06-06T00:19:11.413Z,19.97
2018-06-06T00:19:15.731Z,19.89
2018-06-06T00:19:20.038Z,20.01
2018-06-06T00:19:24.249Z,19.94
2018-06-06T00:19:28.457Z,19.95
2018-06-06T00:19:32.664Z,19.97
2018-06-06T00:19:36.873Z,19.97
2018-06-06T00:19:41.076Z,19.92
2018-06-06T00:19:45.276Z,19.97
2018-06-06T00:19:49.585Z,19.89
2018-06-06T00:19:53.906Z,20.04
2018-06-06T00:19:58.106Z,19.97
2018-06-06T00:20:02.312Z,20
2018-06-06T00:20:06.409Z,19.9
2018-06-06T00:20:10.505Z,19.9
2018-06-06T00:20:14.703Z,19.87
2018-06-06T00:20:19.015Z,19.94
2018-06-06T00:20:23.220Z,19.87
2018-06-06T00:20:27.318Z,19.97
2018-06-06T00:20:31.525Z,20.01
2018-06-06T00:20:35.729Z,19.92
2018-06-06T00:20:39.823Z,19.85
2018-06-06T00:20:44.141Z,19.95
2018-06-06T00:20:48.310Z,19.98
2018-06-06T00:20:52.625Z,19.92
2018-06-06T00:20:56.934Z,19.92
2018-06-06T00:21:01.195Z,20.01
2018-06-06T00:21:05.291Z,19.97
2018-06-06T00:21:09.603Z,19.92
2018-06-06T00:21:13.806Z,19.92
2018-06-06T00:21:18.003Z,19.95
2018-06-06T00:21:21.992Z,19.85
2018-06-06T00:21:26.198Z,19.92
2018-06-06T00:21:30.416Z,19.92
2018-06-06T00:21:34.622Z,19.86
2018-06-06T00:21:38.714Z,20.01
2018-06-06T00:21:43.034Z,19.89
2018-06-06T00:21:47.337Z,19.92
2018-06-06T00:21:51.537Z,19.9
2018-06-06T00:21:55.738Z,19.97
2018-06-06T00:22:00.048Z,19.87
2018-06-06T00:22:04.044Z,19.9
2018-06-06T00:22:08.245Z,19.87
2018-06-06T00:22:12.238Z,19.89
2018-06-06T00:22:16.549Z,19.87
2018-06-06T00:22:20.653Z,19.89
2018-06-06T00:22:24.966Z,19.95
2018-06-06T00:22:29.196Z,19.9
2018-06-06T00:22:33.515Z,19.9
2018-06-06T00:22:37.825Z,19.87
2018-06-06T00:22:42.137Z,19.86
2018-06-06T00:22:46.351Z,19.87
2018-06-06T00:22:50.567Z,19.89
2018-06-06T00:22:54.782Z,19.89
2018-06-06T00:22:58.797Z,19.83
2018-06-06T00:23:02.793Z,19.85
2018-06-06T00:23:06.785Z,19.85
2018-06-06T00:23:10.677Z,19.85
2018-06-06T00:23:14.990Z,19.86
2018-06-06T00:23:19.193Z,19.79
2018-06-06T00:23:23.392Z,19.87
2018-06-06T00:23:27.589Z,19.85
2018-06-06T00:23:31.691Z,19.85
2018-06-06T00:23:35.901Z,19.85
2018-06-06T00:23:39.996Z,19.89
2018-06-06T00:23:44.093Z,19.86
2018-06-06T00:23:48.303Z,19.82
2018-06-06T00:23:52.620Z,19.8
2018-06-06T00:23:56.933Z,19.78
2018-06-06T00:24:01.244Z,19.76
2018-06-06T00:24:05.342Z,19.75
2018-06-06T00:24:09.661Z,19.8
2018-06-06T00:24:13.756Z,19.87
2018-06-06T00:24:17.855Z,19.78
2018-06-06T00:24:22.167Z,19.8
2018-06-06T00:24:26.498Z,19.85
2018-06-06T00:24:30.705Z,19.78
2018-06-06T00:24:34.905Z,19.8
2018-06-06T00:24:39.002Z,19.86
2018-06-06T00:24:43.213Z,19.82
2018-06-06T00:24:47.529Z,19.78
2018-06-06T00:24:51.846Z,19.78
2018-06-06T00:24:56.156Z,19.85
2018-06-06T00:25:00.357Z,19.76
2018-06-06T00:25:04.513Z,19.78
2018-06-06T00:25:08.716Z,19.8
2018-06-06T00:25:12.711Z,19.76
2018-06-06T00:25:16.917Z,19.76
2018-06-06T00:25:21.020Z,19.92
2018-06-06T00:25:25.232Z,19.82
2018-06-06T00:25:29.549Z,19.76
2018-06-06T00:25:33.857Z,19.72
2018-06-06T00:25:38.067Z,19.82
2018-06-06T00:25:42.160Z,19.78
2018-06-06T00:25:46.509Z,19.76
2018-06-06T00:25:50.606Z,19.79
2018-06-06T00:25:54.809Z,19.87
2018-06-06T00:25:59.117Z,19.87
2018-06-06T00:26:03.215Z,19.87
2018-06-06T00:26:07.359Z,19.8
2018-06-06T00:26:11.351Z,19.86
2018-06-06T00:26:15.547Z,19.8
2018-06-06T00:26:19.639Z,19.82
2018-06-06T00:26:23.843Z,19.76
2018-06-06T00:26:28.044Z,19.79
2018-06-06T00:26:32.141Z,19.8
2018-06-06T00:26:36.343Z,19.87
2018-06-06T00:26:40.675Z,19.8
2018-06-06T00:26:44.987Z,19.83
2018-06-06T00:26:49.195Z,19.78
2018-06-06T00:26:53.298Z,19.78
2018-06-06T00:26:57.651Z,19.8
2018-06-06T00:27:02.060Z,19.8
2018-06-06T00:27:06.159Z,19.78
2018-06-06T00:27:10.495Z,19.76
2018-06-06T00:27:14.697Z,19.78
2018-06-06T00:27:18.691Z,19.8
2018-06-06T00:27:23.004Z,19.8
2018-06-06T00:27:27.215Z,19.79
2018-06-06T00:27:31.314Z,19.85
2018-06-06T00:27:35.623Z,19.72
2018-06-06T00:27:39.827Z,19.78
2018-06-06T00:27:44.035Z,19.76
2018-06-06T00:27:48.354Z,19.75
2018-06-06T00:27:52.561Z,19.75
2018-06-06T00:27:56.870Z,19.79
2018-06-06T00:28:01.070Z,19.78
2018-06-06T00:28:05.218Z,19.78
2018-06-06T00:28:09.422Z,19.78
2018-06-06T00:28:13.626Z,19.78
2018-06-06T00:28:17.950Z,19.72
2018-06-06T00:28:22.145Z,19.78
2018-06-06T00:28:26.460Z,19.79
2018-06-06T00:28:30.657Z,19.65
2018-06-06T00:28:34.647Z,19.79
2018-06-06T00:28:38.848Z,19.78
2018-06-06T00:28:43.160Z,19.78
2018-06-06T00:28:47.471Z,19.79
2018-06-06T00:28:51.790Z,19.64
2018-06-06T00:28:55.992Z,19.8
2018-06-06T00:29:00.195Z,19.75
2018-06-06T00:29:04.244Z,19.79
2018-06-06T00:29:08.338Z,19.64
2018-06-06T00:29:12.551Z,19.78
2018-06-06T00:29:16.545Z,19.68
2018-06-06T00:29:20.851Z,19.78
2018-06-06T00:29:25.063Z,19.78
2018-06-06T00:29:28.839Z,19.75
2018-06-06T00:29:32.934Z,19.78
2018-06-06T00:29:37.144Z,19.71
2018-06-06T00:29:41.348Z,19.64
2018-06-06T00:29:45.451Z,19.78
2018-06-06T00:29:49.780Z,19.72
2018-06-06T00:29:54.086Z,19.78
2018-06-06T00:29:58.288Z,19.62
2018-06-06T00:30:02.503Z,19.67
2018-06-06T00:30:06.715Z,19.68
2018-06-06T00:30:10.818Z,19.7
2018-06-06T00:30:15.034Z,19.68
2018-06-06T00:30:19.340Z,19.61
2018-06-06T00:30:23.543Z,19.72
2018-06-06T00:30:27.747Z,19.68
2018-06-06T00:30:31.948Z,19.71
2018-06-06T00:30:36.263Z,19.65
2018-06-06T00:30:40.577Z,19.61
2018-06-06T00:30:44.887Z,19.72
2018-06-06T00:30:49.097Z,19.7
2018-06-06T00:30:53.415Z,19.61
2018-06-06T00:30:57.522Z,19.71
2018-06-06T00:31:01.728Z,19.68
2018-06-06T00:31:05.863Z,19.62
2018-06-06T00:31:10.076Z,19.71
2018-06-06T00:31:14.384Z,19.64
2018-06-06T00:31:18.693Z,19.7
2018-06-06T00:31:22.795Z,19.71
2018-06-06T00:31:26.996Z,19.7
2018-06-06T00:31:31.309Z,19.68
2018-06-06T00:31:35.514Z,19.68
2018-06-06T00:31:39.820Z,19.65
2018-06-06T00:31:44.176Z,19.64
2018-06-06T00:31:48.483Z,19.65
2018-06-06T00:31:52.686Z,19.64
2018-06-06T00:31:56.905Z,19.7
2018-06-06T00:32:00.906Z,19.68
2018-06-06T00:32:05.116Z,19.68
2018-06-06T00:32:09.212Z,19.67
2018-06-06T00:32:13.308Z,19.65
2018-06-06T00:32:17.625Z,19.67
2018-06-06T00:32:21.839Z,19.64
2018-06-06T00:32:26.156Z,19.7
2018-06-06T00:32:30.368Z,19.62
2018-06-06T00:32:34.577Z,19.61
2018-06-06T00:32:38.816Z,19.64
2018-06-06T00:32:43.130Z,19.7
2018-06-06T00:32:47.446Z,19.64
2018-06-06T00:32:51.759Z,19.65
2018-06-06T00:32:55.857Z,19.58
2018-06-06T00:32:59.953Z,19.62
2018-06-06T00:33:03.844Z,19.7
2018-06-06T00:33:07.941Z,19.58
2018-06-06T00:33:12.149Z,19.53
2018-06-06T00:33:16.460Z,19.64
2018-06-06T00:33:20.765Z,19.67
2018-06-06T00:33:24.966Z,19.58
2018-06-06T00:33:29.179Z,19.57
2018-06-06T00:33:33.277Z,19.52
2018-06-06T00:33:37.598Z,19.58
2018-06-06T00:33:41.698Z,19.57
2018-06-06T00:33:46.019Z,19.55
2018-06-06T00:33:50.335Z,19.57
2018-06-06T00:33:54.532Z,19.57
2018-06-06T00:33:58.738Z,19.58
2018-06-06T00:34:02.945Z,19.61
2018-06-06T00:34:07.153Z,19.57
2018-06-06T00:34:11.466Z,19.57
2018-06-06T00:34:15.568Z,19.53
2018-06-06T00:34:19.878Z,19.49
2018-06-06T00:34:24.190Z,19.53
2018-06-06T00:34:28.405Z,19.52
2018-06-06T00:34:32.606Z,19.55
2018-06-06T00:34:36.915Z,19.6
2018-06-06T00:34:41.040Z,19.53
2018-06-06T00:34:45.350Z,19.62
2018-06-06T00:34:49.556Z,19.52
2018-06-06T00:34:53.764Z,19.52
2018-06-06T00:34:58.076Z,19.58
2018-06-06T00:35:02.280Z,19.53
2018-06-06T00:35:06.385Z,19.53
2018-06-06T00:35:10.695Z,19.53
2018-06-06T00:35:14.911Z,19.58
2018-06-06T00:35:19.007Z,19.57
2018-06-06T00:35:23.100Z,19.57
2018-06-06T00:35:27.300Z,19.52
2018-06-06T00:35:31.397Z,19.58
2018-06-06T00:35:35.609Z,19.58
2018-06-06T00:35:39.815Z,19.53
2018-06-06T00:35:44.124Z,19.5
2018-06-06T00:35:48.329Z,19.55
2018-06-06T00:35:52.540Z,19.6
2018-06-06T00:35:56.858Z,19.5
2018-06-06T00:36:01.166Z,19.55
2018-06-06T00:36:05.266Z,19.52
2018-06-06T00:36:09.362Z,19.57
2018-06-06T00:36:13.564Z,19.5
2018-06-06T00:36:17.769Z,19.49
2018-06-06T00:36:21.974Z,19.52
2018-06-06T00:36:26.176Z,19.5
2018-06-06T00:36:30.414Z,19.5
2018-06-06T00:36:34.526Z,19.53
2018-06-06T00:36:38.727Z,19.52
2018-06-06T00:36:42.938Z,19.52
2018-06-06T00:36:47.248Z,19.5
2018-06-06T00:36:51.558Z,19.53
2018-06-06T00:36:55.875Z,19.46
2018-06-06T00:37:00.083Z,19.46
2018-06-06T00:37:04.288Z,19.52
2018-06-06T00:37:08.489Z,19.5
2018-06-06T00:37:12.801Z,19.47
2018-06-06T00:37:17.008Z,19.52
2018-06-06T00:37:21.111Z,19.52
2018-06-06T00:37:25.316Z,19.49
2018-06-06T00:37:29.628Z,19.45
2018-06-06T00:37:33.834Z,19.43
2018-06-06T00:37:38.143Z,19.46
2018-06-06T00:37:42.459Z,19.42
2018-06-06T00:37:46.451Z,19.45
2018-06-06T00:37:50.655Z,19.45
2018-06-06T00:37:54.865Z,19.42
2018-06-06T00:37:59.073Z,19.46
2018-06-06T00:38:03.487Z,19.43
2018-06-06T00:38:07.504Z,19.49
2018-06-06T00:38:11.392Z,19.45
2018-06-06T00:38:15.510Z,19.4
2018-06-06T00:38:19.822Z,19.42
2018-06-06T00:38:24.130Z,19.53
2018-06-06T00:38:28.332Z,19.47
2018-06-06T00:38:32.653Z,19.5
2018-06-06T00:38:36.751Z,19.43
2018-06-06T00:38:41.067Z,19.42
2018-06-06T00:38:45.272Z,19.43
2018-06-06T00:38:49.477Z,19.5
2018-06-06T00:38:53.580Z,19.43
2018-06-06T00:38:57.888Z,19.42
2018-06-06T00:39:02.139Z,19.47
2018-06-06T00:39:06.449Z,19.42
2018-06-06T00:39:10.653Z,19.49
2018-06-06T00:39:14.861Z,19.42
2018-06-06T00:39:19.061Z,19.46
2018-06-06T00:39:23.264Z,19.45
2018-06-06T00:39:27.496Z,19.43
2018-06-06T00:39:31.806Z,19.45
2018-06-06T00:39:35.903Z,19.38
2018-06-06T00:39:40.311Z,19.46
2018-06-06T00:39:44.744Z,19.45
2018-06-06T00:39:49.104Z,19.4
2018-06-06T00:39:53.311Z,19.46
2018-06-06T00:39:57.522Z,19.42
2018-06-06T00:40:01.940Z,19.42
2018-06-06T00:40:06.160Z,19.43
2018-06-06T00:40:10.260Z,19.46
2018-06-06T00:40:14.466Z,19.39
2018-06-06T00:40:18.567Z,19.45
2018-06-06T00:40:22.896Z,19.47
2018-06-06T00:40:27.209Z,19.43
2018-06-06T00:40:31.309Z,19.38
2018-06-06T00:40:35.400Z,19.47
2018-06-06T00:40:39.497Z,19.45
2018-06-06T00:40:43.633Z,19.42
2018-06-06T00:40:47.734Z,19.39
2018-06-06T00:40:51.939Z,19.43
2018-06-06T00:40:56.249Z,19.45
2018-06-06T00:41:00.594Z,19.45
2018-06-06T00:41:04.795Z,19.42
2018-06-06T00:41:08.893Z,19.47
2018-06-06T00:41:13.110Z,19.4
2018-06-06T00:41:17.318Z,19.43
2018-06-06T00:41:21.444Z,19.47
2018-06-06T00:41:25.662Z,19.47
2018-06-06T00:41:29.757Z,19.47
2018-06-06T00:41:34.070Z,19.38
2018-06-06T00:41:38.169Z,19.43
2018-06-06T00:41:42.266Z,19.45
2018-06-06T00:41:46.494Z,19.43
2018-06-06T00:41:50.632Z,19.39
2018-06-06T00:41:54.841Z,19.39
2018-06-06T00:41:59.162Z,19.45
2018-06-06T00:42:03.359Z,19.4
2018-06-06T00:42:07.564Z,19.49
2018-06-06T00:42:11.912Z,19.39
2018-06-06T00:42:16.120Z,19.46
2018-06-06T00:42:20.218Z,19.38
2018-06-06T00:42:24.544Z,19.42
2018-06-06T00:42:28.857Z,19.39
2018-06-06T00:42:33.061Z,19.45
2018-06-06T00:42:37.385Z,19.4
2018-06-06T00:42:41.710Z,19.38
2018-06-06T00:42:45.920Z,19.43
2018-06-06T00:42:50.161Z,19.39
2018-06-06T00:42:54.366Z,19.45
2018-06-06T00:42:58.683Z,19.45
2018-06-06T00:43:02.879Z,19.39
2018-06-06T00:43:07.094Z,19.35
2018-06-06T00:43:11.313Z,19.35
2018-06-06T00:43:15.407Z,19.35
2018-06-06T00:43:19.510Z,19.31
2018-06-06T00:43:23.504Z,19.35
2018-06-06T00:43:27.713Z,19.38
2018-06-06T00:43:32.028Z,19.42
2018-06-06T00:43:36.338Z,19.32
2018-06-06T00:43:40.436Z,19.43
2018-06-06T00:43:44.678Z,19.28
2018-06-06T00:43:48.789Z,19.3
2018-06-06T00:43:52.907Z,19.4
2018-06-06T00:43:57.114Z,19.42
2018-06-06T00:44:01.423Z,19.39
2018-06-06T00:44:05.629Z,19.35
2018-06-06T00:44:09.618Z,19.39
2018-06-06T00:44:13.924Z,19.3
2018-06-06T00:44:17.921Z,19.34
2018-06-06T00:44:22.234Z,19.4
2018-06-06T00:44:26.449Z,19.38
2018-06-06T00:44:30.653Z,19.39
2018-06-06T00:44:34.960Z,19.3
2018-06-06T00:44:39.087Z,19.38
2018-06-06T00:44:43.294Z,19.39
2018-06-06T00:44:47.500Z,19.3
2018-06-06T00:44:51.712Z,19.32
2018-06-06T00:44:55.918Z,19.4
2018-06-06T00:45:00.123Z,19.35
2018-06-06T00:45:04.336Z,19.38
2018-06-06T00:45:08.442Z,19.34
2018-06-06T00:45:12.657Z,19.34
2018-06-06T00:45:16.867Z,19.43
2018-06-06T00:45:21.070Z,19.34
2018-06-06T00:45:25.277Z,19.34
2018-06-06T00:45:29.599Z,19.34
2018-06-06T00:45:33.806Z,19.39
2018-06-06T00:45:37.793Z,19.28
2018-06-06T00:45:42.098Z,19.34
2018-06-06T00:45:46.312Z,19.34
2018-06-06T00:45:50.621Z,19.31
2018-06-06T00:45:54.724Z,19.25
2018-06-06T00:45:59.038Z,19.4
2018-06-06T00:46:03.189Z,19.32
2018-06-06T00:46:07.390Z,19.34
2018-06-06T00:46:11.604Z,19.32
2018-06-06T00:46:15.917Z,19.32
2018-06-06T00:46:20.013Z,19.27
2018-06-06T00:46:24.222Z,19.34
2018-06-06T00:46:28.424Z,19.32
2018-06-06T00:46:32.629Z,19.35
2018-06-06T00:46:36.946Z,19.35
2018-06-06T00:46:41.147Z,19.35
2018-06-06T00:46:45.351Z,19.31
2018-06-06T00:46:49.561Z,19.31
2018-06-06T00:46:53.873Z,19.31
2018-06-06T00:46:58.080Z,19.3
2018-06-06T00:47:02.281Z,19.35
2018-06-06T00:47:06.594Z,19.32
2018-06-06T00:47:10.694Z,19.34
2018-06-06T00:47:15.017Z,19.32
2018-06-06T00:47:19.116Z,19.34
2018-06-06T00:47:23.439Z,19.35
2018-06-06T00:47:27.540Z,19.25
2018-06-06T00:47:31.744Z,19.25
2018-06-06T00:47:35.953Z,19.32
2018-06-06T00:47:40.269Z,19.25
2018-06-06T00:47:44.478Z,19.31
2018-06-06T00:47:48.579Z,19.3
2018-06-06T00:47:52.790Z,19.27
2018-06-06T00:47:57.104Z,19.25
2018-06-06T00:48:01.413Z,19.24
2018-06-06T00:48:05.567Z,19.25
2018-06-06T00:48:09.564Z,19.28
2018-06-06T00:48:13.888Z,19.23
2018-06-06T00:48:18.199Z,19.28
2018-06-06T00:48:22.397Z,19.27
2018-06-06T00:48:26.604Z,19.3
2018-06-06T00:48:30.914Z,19.21
2018-06-06T00:48:35.128Z,19.23
2018-06-06T00:48:39.337Z,19.23
2018-06-06T00:48:43.438Z,19.28
2018-06-06T00:48:47.755Z,19.28
2018-06-06T00:48:51.854Z,19.3
2018-06-06T00:48:55.945Z,19.3
2018-06-06T00:49:00.148Z,19.27
2018-06-06T00:49:04.614Z,19.27
2018-06-06T00:49:08.709Z,19.3
2018-06-06T00:49:12.913Z,19.23
2018-06-06T00:49:17.012Z,19.21
2018-06-06T00:49:21.274Z,19.2
2018-06-06T00:49:25.376Z,19.3
2018-06-06T00:49:29.369Z,19.2
2018-06-06T00:49:33.576Z,19.28
2018-06-06T00:49:37.666Z,19.17
2018-06-06T00:49:41.875Z,19.2
2018-06-06T00:49:46.086Z,19.15
2018-06-06T00:49:50.448Z,19.24
2018-06-06T00:49:54.768Z,19.15
2018-06-06T00:49:58.762Z,19.13
2018-06-06T00:50:03.068Z,19.21
2018-06-06T00:50:07.175Z,19.13
2018-06-06T00:50:11.273Z,19.12
2018-06-06T00:50:15.374Z,19.21
2018-06-06T00:50:19.720Z,19.15
2018-06-06T00:50:24.033Z,19.2
2018-06-06T00:50:28.345Z,19.27
2018-06-06T00:50:32.679Z,19.2
2018-06-06T00:50:36.880Z,19.12
2018-06-06T00:50:41.083Z,19.17
2018-06-06T00:50:45.174Z,19.24
2018-06-06T00:50:49.271Z,19.17
2018-06-06T00:50:53.376Z,19.13
2018-06-06T00:50:57.582Z,19.2
2018-06-06T00:51:01.787Z,19.15
2018-06-06T00:51:05.995Z,19.24
2018-06-06T00:51:10.096Z,19.16
2018-06-06T00:51:14.414Z,19.13
2018-06-06T00:51:18.404Z,19.21
2018-06-06T00:51:22.607Z,19.24
2018-06-06T00:51:26.718Z,19.24
2018-06-06T00:51:30.812Z,19.17
2018-06-06T00:51:35.015Z,19.2
2018-06-06T00:51:39.223Z,19.13
2018-06-06T00:51:43.328Z,19.13
2018-06-06T00:51:47.693Z,19.21
2018-06-06T00:51:51.902Z,19.17
2018-06-06T00:51:56.211Z,19.1
2018-06-06T00:52:00.314Z,19.2
2018-06-06T00:52:04.460Z,19.15
2018-06-06T00:52:08.449Z,19.1
2018-06-06T00:52:12.653Z,19.17
2018-06-06T00:52:16.849Z,19.12
2018-06-06T00:52:21.050Z,19.2
2018-06-06T00:52:25.257Z,19.1
2018-06-06T00:52:29.563Z,19.1
2018-06-06T00:52:33.658Z,19.1
2018-06-06T00:52:37.861Z,19.13
2018-06-06T00:52:42.183Z,19.15
2018-06-06T00:52:46.177Z,19.12
2018-06-06T00:52:50.496Z,19.12
2018-06-06T00:52:54.704Z,19.13
2018-06-06T00:52:59.029Z,19.13
2018-06-06T00:53:03.235Z,19.12
2018-06-06T00:53:07.345Z,19.16
2018-06-06T00:53:11.444Z,19.16
2018-06-06T00:53:15.647Z,19.13
2018-06-06T00:53:19.854Z,19.15
2018-06-06T00:53:23.951Z,19.1
2018-06-06T00:53:28.044Z,19.12
2018-06-06T00:53:32.354Z,19.13
2018-06-06T00:53:36.456Z,19.07
2018-06-06T00:53:40.551Z,19.06
2018-06-06T00:53:44.654Z,19.1
2018-06-06T00:53:48.861Z,19.15
2018-06-06T00:53:53.170Z,19.1
2018-06-06T00:53:57.266Z,19.09
2018-06-06T00:54:01.402Z,19.09
2018-06-06T00:54:05.505Z,19.1
2018-06-06T00:54:09.704Z,19.16
2018-06-06T00:54:13.915Z,18.99
2018-06-06T00:54:18.127Z,19.09
2018-06-06T00:54:22.328Z,19.07
2018-06-06T00:54:26.425Z,19.01
2018-06-06T00:54:30.635Z,18.99